सभी
Kyogle Hospital Airport YXKO मौसम
There is no TAF data available at YXKO. Showing TAF data for YLIS (21 mi SE).
LSY Terminal Area Forecast (no data for YXKO)
| Here is the undecoded forecast: 2026/05/02 14:06 YLIS 021406Z 0214/0302 36004KT 0300 FG BKN001 FM022100 36004KT 9999 NSW SCT020 FM030100 12009KT 9999 SCT030 PROB30 0221/0222 0400 FG BKN001 RMK T 16 14 15 20 Q 1022 1020 1021 1022 |
There is no METAR data available at YXKO. Showing METAR data for YCAS (18 mi S).
Recent CSI METAR history (no data for YXKO)
| Date | Time (AEST) | Flight Rules | Wind Dir. | Speed | Type | Height AGL (ft) | Visibility | Temp (°C) | Temp (°F) | Dew Point (°C) | Dew Point (°F) | Rel. Humid. | Pressure | Density Altitude | Remarks |
|---|---|---|---|---|---|---|---|---|---|---|---|---|---|---|---|
| 03-मई | 04:00 | n/a | Calm | Missing | 14° | 57° | 14° | 57° | 100% | 1021 mb | -265 ft | ||||
| 03-मई | 03:00 | n/a | 180° | 1 kt | Missing | 14° | 57° | 14° | 57° | 100% | 1021 mb | -265 ft | |||
| 03-मई | 02:00 | n/a | Calm | Missing | 15° | 59° | 15° | 59° | 100% | 1022 mb | -175 ft | ||||
| 03-मई | 01:00 | n/a | Calm | Missing | 16° | 60° | 16° | 60° | 100% | 1022 mb | -55 ft | ||||
| 03-मई | 00:00 | n/a | Calm | Missing | 17° | 62° | 17° | 62° | 100% | 1022 mb | 65 ft | ||||
| 02-मई | 23:00 | n/a | Calm | Missing | 18° | 64° | 17° | 62° | 94% | 1023 mb | 156 ft | ||||
| 02-मई | 22:00 | n/a | 220° | 4 kt | Missing | 18° | 64° | 17° | 62° | 94% | 1023 mb | 156 ft | |||
| 02-मई | 21:00 | n/a | 240° | 3 kt | Missing | 18° | 64° | 18° | 64° | 100% | 1023 mb | 156 ft | |||
| 02-मई | 20:00 | n/a | 120° | 7 kt | Missing | 19° | 66° | 18° | 64° | 94% | 1023 mb | 276 ft | |||
| 02-मई | 19:00 | n/a | Calm | Missing | 19° | 66° | 18° | 64° | 94% | 1023 mb | 276 ft | ||||
| 02-मई | 18:00 | n/a | 110° | 8 kt | Missing | 19° | 66° | 17° | 62° | 88% | 1022 mb | 305 ft | |||
| 02-मई | 17:00 | n/a | 140° | 8 kt | Missing | 22° | 71° | 17° | 62° | 73% | 1021 mb | 695 ft | |||
| 02-मई | 16:00 | n/a | 130° | 11 kt | Missing | 23° | 73° | 17° | 62° | 69% | 1021 mb | 815 ft | |||
| 02-मई | 15:00 | n/a | 130° | 13 kt | Missing | 24° | 75° | 18° | 64° | 69% | 1021 mb | 935 ft | |||
| 02-मई | 14:00 | n/a | 130° | 15 kt | Missing | 25° | 77° | 17° | 62° | 61% | 1021 mb | 1,055 ft | |||
| 02-मई | 13:00 | n/a | 130° | 13 kt | Missing | 25° | 77° | 17° | 62° | 61% | 1021 mb | 1,055 ft | |||
| 02-मई | 12:00 | n/a | 160° | 7 kt | Missing | 24° | 75° | 18° | 64° | 69% | 1022 mb | 905 ft | |||
| 02-मई | 11:00 | n/a | 160° | 9 kt | Missing | 24° | 75° | 17° | 62° | 65% | 1023 mb | 876 ft | |||
| 02-मई | 10:00 | n/a | 140° | 10 kt | Missing | 24° | 75° | 18° | 64° | 69% | 1024 mb | 846 ft | |||
| 02-मई | 09:00 | n/a | 160° | 6 kt | Missing | 23° | 73° | 19° | 66° | 78% | 1024 mb | 726 ft | |||
| 02-मई | 08:00 | n/a | 190° | 5 kt | Missing | 20° | 68° | 20° | 68° | 100% | 1024 mb | 366 ft | |||
| 02-मई | 07:00 | n/a | 170° | 2 kt | Missing | 16° | 60° | 16° | 60° | 100% | 1023 mb | -84 ft | |||
| 02-मई | 06:00 | n/a | 210° | 5 kt | Missing | 17° | 62° | 17° | 62° | 100% | 1023 mb | 36 ft | |||
| 02-मई | 05:00 | n/a | Calm | Missing | 16° | 60° | 15° | 59° | 94% | 1023 mb | -84 ft |
लॉगिन
| Your browser is unsupported. अपना ब्राऊजर अपग्रेड करें |
